Time;durP1;ratioP1;P1;durP2;ratioP2;P2;SDS_P1;SDS_P2;PMS_P1;PMS_P2;Temp;Humidity;BMP_temperature;BMP_pressure;BME280_temperature;BME280_humidity;BME280_pressure;Samples;Min_cycle;Max_cycle;Signal;HPM_P1;HPM_P2
2021/10/31 00:01:19;;;;;;;35.28;17.80;;;11.10;99.90;;;;;;4977601;28;20042;-78
2021/10/31 00:03:45;;;;;;;32.10;18.30;;;11.10;99.90;;;;;;4977402;28;20397;-79
2021/10/31 00:06:11;;;;;;;39.70;17.15;;;11.20;99.90;;;;;;4976293;28;20054;-80
2021/10/31 00:08:37;;;;;;;43.65;18.05;;;11.00;99.90;;;;;;4960700;28;20187;-78
2021/10/31 00:11:03;;;;;;;36.33;18.48;;;11.00;99.90;;;;;;4977311;28;20038;-79
2021/10/31 00:13:29;;;;;;;34.33;18.60;;;10.90;99.90;;;;;;4977173;28;20405;-78
2021/10/31 00:15:55;;;;;;;41.42;17.98;;;10.90;99.90;;;;;;4977546;28;20536;-78
2021/10/31 00:18:21;;;;;;;36.35;18.63;;;10.90;99.90;;;;;;4977496;28;20042;-79
2021/10/31 00:20:47;;;;;;;35.00;18.85;;;10.90;99.90;;;;;;4977727;28;20065;-80
2021/10/31 00:23:12;;;;;;;43.20;18.92;;;10.80;99.90;;;;;;4976413;28;20046;-80
2021/10/31 00:25:38;;;;;;;45.72;20.83;;;10.80;99.90;;;;;;4977399;28;20089;-78
2021/10/31 00:28:04;;;;;;;34.33;19.08;;;10.80;99.90;;;;;;4976836;28;20035;-80
2021/10/31 00:30:30;;;;;;;45.30;19.75;;;10.70;99.90;;;;;;4960889;28;20054;-78
2021/10/31 00:32:55;;;;;;;42.70;20.50;;;10.70;99.90;;;;;;4977060;28;20482;-79
2021/10/31 00:35:21;;;;;;;43.97;18.90;;;10.70;99.90;;;;;;4977295;28;20096;-78
2021/10/31 00:37:47;;;;;;;37.60;20.63;;;10.60;99.90;;;;;;4960043;28;20108;-79
2021/10/31 00:40:13;;;;;;;39.35;20.77;;;10.80;99.90;;;;;;4977038;28;20038;-80
2021/10/31 00:42:39;;;;;;;41.72;21.02;;;10.70;99.90;;;;;;4976297;28;20046;-78
2021/10/31 00:45:06;;;;;;;38.33;20.48;;;10.60;99.90;;;;;;4976557;28;20035;-77
2021/10/31 00:47:32;;;;;;;50.53;22.63;;;10.60;99.90;;;;;;4960500;28;20085;-77
2021/10/31 00:49:58;;;;;;;55.92;22.65;;;10.60;99.90;;;;;;4960321;28;20044;-80
2021/10/31 00:52:26;;;;;;;41.97;22.27;;;10.60;99.90;;;;;;4976452;28;20485;-78
2021/10/31 00:54:52;;;;;;;42.03;22.90;;;10.60;99.90;;;;;;4975516;28;20089;-79
2021/10/31 00:57:18;;;;;;;44.80;21.65;;;10.60;99.90;;;;;;4976255;28;20110;-80
2021/10/31 00:59:44;;;;;;;54.22;23.10;;;10.60;99.90;;;;;;4976243;28;20055;-78
2021/10/31 01:02:12;;;;;;;46.53;23.63;;;10.60;99.90;;;;;;4960064;28;20382;-78
2021/10/31 01:04:44;;;;;;;43.53;22.40;;;10.50;99.90;;;;;;4942767;28;20555;-78
2021/10/31 01:07:32;;;;;;;51.90;23.00;;;10.50;99.90;;;;;;4972976;28;20082;-78
2021/10/31 01:10:14;;;;;;;45.28;24.02;;;10.50;99.90;;;;;;4956078;28;20506;-79
2021/10/31 01:13:06;;;;;;;45.15;23.88;;;10.40;99.90;;;;;;4956563;28;20126;-79
2021/10/31 01:15:47;;;;;;;45.15;22.73;;;10.40;99.90;;;;;;4956827;28;20049;-77
2021/10/31 01:18:33;;;;;;;46.95;23.77;;;10.40;99.90;;;;;;4940105;28;20125;-79
2021/10/31 01:21:11;;;;;;;59.55;25.20;;;10.40;99.90;;;;;;4957009;28;20050;-79
2021/10/31 01:24:01;;;;;;;48.80;23.75;;;10.30;99.90;;;;;;4955528;28;20134;-78
2021/10/31 01:26:35;;;;;;;48.25;23.30;;;10.30;99.90;;;;;;4956516;28;20045;-78
2021/10/31 01:29:27;;;;;;;56.90;23.73;;;10.30;99.90;;;;;;4956066;28;20100;-78
2021/10/31 01:32:18;;;;;;;56.53;24.80;;;10.20;99.90;;;;;;4935804;28;20154;-78
2021/10/31 01:35:07;;;;;;;49.45;24.70;;;10.20;99.90;;;;;;4975626;28;20101;-78
2021/10/31 01:38:00;;;;;;;53.38;25.35;;;10.20;99.90;;;;;;4959204;28;20115;-78
2021/10/31 01:40:35;;;;;;;57.10;25.08;;;10.20;99.90;;;;;;4975714;28;20042;-78
2021/10/31 01:43:19;;;;;;;43.50;24.23;;;10.20;99.90;;;;;;4975234;28;20046;-78
2021/10/31 01:46:15;;;;;;;45.83;24.15;;;10.20;99.90;;;;;;4975522;28;20363;-79
2021/10/31 01:49:13;;;;;;;52.33;24.00;;;10.10;99.90;;;;;;4959020;28;20482;-78
2021/10/31 01:51:45;;;;;;;57.85;25.52;;;10.10;99.90;;;;;;4975714;28;20474;-78
2021/10/31 01:54:19;;;;;;;52.70;25.70;;;10.10;99.90;;;;;;4974461;28;20498;-77
2021/10/31 01:56:50;;;;;;;60.40;27.00;;;10.10;99.90;;;;;;4975604;28;20046;-79
2021/10/31 01:59:25;;;;;;;52.47;27.10;;;10.10;99.90;;;;;;4975126;28;20092;-77
2021/10/31 02:01:52;;;;;;;55.75;28.05;;;10.10;99.90;;;;;;4958972;28;20046;-79
2021/10/31 02:04:19;;;;;;;73.82;31.25;;;10.10;99.90;;;;;;4975175;28;20390;-80
2021/10/31 02:06:49;;;;;;;63.95;31.80;;;10.00;99.90;;;;;;4974801;28;20192;-78
2021/10/31 02:09:19;;;;;;;65.82;31.27;;;10.10;99.90;;;;;;4974151;28;20043;-78
2021/10/31 02:11:47;;;;;;;71.70;32.38;;;10.10;99.90;;;;;;4958911;28;20050;-80
2021/10/31 02:14:13;;;;;;;66.35;32.45;;;10.10;99.90;;;;;;4958061;28;20054;-80
2021/10/31 02:16:40;;;;;;;74.18;32.60;;;10.00;99.90;;;;;;4958810;28;20050;-78
2021/10/31 02:19:12;;;;;;;66.55;33.33;;;10.00;99.90;;;;;;4974933;28;20045;-77
2021/10/31 02:21:39;;;;;;;60.47;31.55;;;10.00;99.90;;;;;;4974898;28;20050;-79
2021/10/31 02:24:08;;;;;;;56.10;30.33;;;10.00;99.90;;;;;;4974015;28;20038;-78
2021/10/31 02:26:37;;;;;;;55.30;30.48;;;9.90;99.90;;;;;;4975004;28;20143;-78
2021/10/31 02:29:07;;;;;;;54.72;31.38;;;9.90;99.90;;;;;;4973908;28;20034;-78
2021/10/31 02:31:35;;;;;;;65.22;32.53;;;9.90;99.90;;;;;;4974760;28;20046;-78
2021/10/31 02:34:01;;;;;;;56.45;31.13;;;9.90;99.90;;;;;;4974431;28;20049;-79
2021/10/31 02:36:27;;;;;;;68.53;32.80;;;9.80;99.90;;;;;;4974830;28;20038;-80
2021/10/31 02:38:52;;;;;;;64.78;32.63;;;9.80;99.90;;;;;;4973726;28;20441;-78
2021/10/31 02:41:18;;;;;;;55.55;29.45;;;9.70;99.90;;;;;;4974373;28;20050;-78
2021/10/31 02:43:44;;;;;;;57.25;30.42;;;9.90;99.90;;;;;;4974439;28;20046;-79
2021/10/31 02:46:10;;;;;;;61.22;31.80;;;9.80;99.90;;;;;;4974414;28;20037;-78
2021/10/31 02:48:38;;;;;;;67.55;31.08;;;9.80;99.90;;;;;;4974565;28;20104;-79
2021/10/31 02:51:17;;;;;;;57.42;32.30;;;9.80;99.90;;;;;;4990870;28;20510;-78
2021/10/31 02:53:50;;;;;;;63.50;31.42;;;9.70;99.90;;;;;;4957500;28;20046;-79
2021/10/31 02:56:27;;;;;;;60.05;31.42;;;9.70;99.90;;;;;;4974898;28;20423;-78
2021/10/31 02:58:53;;;;;;;72.13;33.53;;;9.70;99.90;;;;;;4974252;28;20081;-78
2021/10/31 03:01:19;;;;;;;52.97;29.00;;;9.70;99.90;;;;;;4958309;28;20050;-77
2021/10/31 03:03:46;;;;;;;66.90;31.88;;;9.60;99.90;;;;;;4974137;28;20133;-79
2021/10/31 03:06:12;;;;;;;70.93;31.55;;;9.70;99.90;;;;;;4974178;28;20112;-78
2021/10/31 03:08:38;;;;;;;50.42;30.52;;;9.60;99.90;;;;;;4991183;28;20046;-79
2021/10/31 03:11:08;;;;;;;62.13;31.33;;;9.60;99.90;;;;;;4974454;28;20042;-80
2021/10/31 03:13:35;;;;;;;71.72;31.70;;;9.60;99.90;;;;;;4958012;28;20042;-79
2021/10/31 03:16:01;;;;;;;59.90;29.10;;;9.70;99.90;;;;;;4974171;28;20043;-79
2021/10/31 03:18:26;;;;;;;55.22;30.30;;;9.50;99.90;;;;;;4974430;28;20092;-77
2021/10/31 03:20:53;;;;;;;61.10;29.45;;;9.60;99.90;;;;;;4974764;28;20120;-78
2021/10/31 03:23:19;;;;;;;72.90;31.38;;;9.50;99.90;;;;;;4973213;28;20043;-79
2021/10/31 03:25:45;;;;;;;46.95;26.80;;;9.50;99.90;;;;;;4974128;28;20479;-79
2021/10/31 03:28:11;;;;;;;65.60;29.63;;;9.50;99.90;;;;;;4973916;28;20074;-79
2021/10/31 03:30:36;;;;;;;56.83;28.67;;;9.50;99.90;;;;;;4973942;28;20124;-78
2021/10/31 03:33:02;;;;;;;57.55;28.00;;;9.50;99.90;;;;;;4973760;28;20072;-79
2021/10/31 03:35:28;;;;;;;45.10;27.05;;;9.40;99.90;;;;;;4974350;28;20046;-78
2021/10/31 03:37:54;;;;;;;47.75;27.63;;;9.40;99.90;;;;;;4956980;28;20046;-78
2021/10/31 03:40:21;;;;;;;49.35;27.38;;;9.50;99.90;;;;;;4975591;28;20351;-79
2021/10/31 03:42:46;;;;;;;59.08;29.55;;;9.40;99.90;;;;;;4977521;28;20048;-79
2021/10/31 03:45:13;;;;;;;41.30;26.05;;;9.30;99.90;;;;;;4977357;28;20129;-79
2021/10/31 03:47:46;;;;;;;46.53;26.50;;;9.30;99.90;;;;;;4977761;28;20129;-78
2021/10/31 03:50:14;;;;;;;52.83;28.02;;;9.30;99.90;;;;;;4977810;28;20137;-78
2021/10/31 03:52:40;;;;;;;61.35;29.75;;;9.50;99.90;;;;;;4976718;28;20050;-78
2021/10/31 03:55:07;;;;;;;50.65;27.42;;;9.30;99.90;;;;;;4993369;28;20046;-79
2021/10/31 03:57:34;;;;;;;49.38;26.73;;;9.20;99.90;;;;;;4977287;28;20124;-77
2021/10/31 04:00:00;;;;;;;51.97;26.88;;;9.20;99.90;;;;;;4961050;28;20053;-79
2021/10/31 04:02:26;;;;;;;44.78;26.20;;;9.10;99.90;;;;;;4977252;28;20458;-78
2021/10/31 04:04:51;;;;;;;44.35;25.45;;;9.10;99.90;;;;;;4989632;28;20089;-78
2021/10/31 04:07:17;;;;;;;55.92;25.58;;;9.10;99.90;;;;;;4958212;28;20047;-79
2021/10/31 04:09:43;;;;;;;47.03;26.73;;;9.10;99.90;;;;;;4940978;28;20058;-77
2021/10/31 04:12:08;;;;;;;57.10;29.15;;;9.00;99.90;;;;;;4957866;28;20121;-77
2021/10/31 04:14:34;;;;;;;65.10;28.92;;;9.00;99.90;;;;;;4975073;28;20043;-79
2021/10/31 04:16:59;;;;;;;45.45;26.63;;;8.90;99.90;;;;;;4957674;28;20181;-79
2021/10/31 04:19:26;;;;;;;60.65;27.83;;;9.00;99.90;;;;;;4973728;28;20045;-79
2021/10/31 04:21:51;;;;;;;61.35;27.48;;;8.90;99.90;;;;;;4989935;28;20479;-79
2021/10/31 04:24:17;;;;;;;60.13;28.17;;;8.90;99.90;;;;;;4940696;28;20090;-79
2021/10/31 04:26:43;;;;;;;56.08;28.08;;;8.90;99.90;;;;;;4990255;28;20041;-79
2021/10/31 04:29:09;;;;;;;60.58;29.25;;;8.90;99.90;;;;;;4941631;28;20043;-79
2021/10/31 04:31:35;;;;;;;58.55;29.02;;;8.90;99.90;;;;;;4975308;28;20611;-78
2021/10/31 04:34:01;;;;;;;58.28;29.10;;;8.90;99.90;;;;;;4960665;28;20037;-78
2021/10/31 04:36:27;;;;;;;48.45;27.42;;;8.90;99.90;;;;;;4976624;28;20141;-77
2021/10/31 04:38:55;;;;;;;43.95;27.30;;;8.90;99.90;;;;;;4975882;28;20125;-78
2021/10/31 04:41:23;;;;;;;48.28;26.83;;;8.90;99.90;;;;;;4976680;28;20042;-77
2021/10/31 04:43:49;;;;;;;46.67;27.27;;;8.90;99.90;;;;;;4976245;28;20042;-79
2021/10/31 04:46:15;;;;;;;62.42;28.35;;;8.80;99.90;;;;;;4976242;28;20076;-78
2021/10/31 04:48:40;;;;;;;54.15;28.73;;;8.80;99.90;;;;;;4976167;28;20082;-79
2021/10/31 04:51:06;;;;;;;62.58;30.50;;;8.90;99.90;;;;;;4976563;28;20042;-78
2021/10/31 04:53:32;;;;;;;59.15;29.70;;;8.80;99.90;;;;;;4975160;28;20047;-79
2021/10/31 04:55:58;;;;;;;56.95;29.48;;;8.80;99.90;;;;;;4976256;28;20397;-79
2021/10/31 04:58:24;;;;;;;58.45;30.55;;;8.80;99.90;;;;;;4975999;28;20065;-78
2021/10/31 05:00:50;;;;;;;58.08;30.60;;;8.90;99.90;;;;;;4975666;28;20058;-78
2021/10/31 05:03:16;;;;;;;72.13;33.42;;;8.90;99.90;;;;;;4975722;28;20058;-79
2021/10/31 05:05:41;;;;;;;70.93;33.22;;;9.10;99.90;;;;;;4976031;28;20157;-77
2021/10/31 05:08:07;;;;;;;58.08;32.05;;;9.10;99.90;;;;;;4975065;28;20073;-77
2021/10/31 05:10:33;;;;;;;67.65;34.45;;;9.00;99.90;;;;;;4976382;28;20125;-78
2021/10/31 05:12:59;;;;;;;87.93;35.22;;;9.20;99.90;;;;;;4959848;28;20042;-79
2021/10/31 05:15:24;;;;;;;76.45;34.92;;;9.30;99.90;;;;;;4976172;28;20038;-79
2021/10/31 05:17:50;;;;;;;74.25;34.75;;;9.20;99.90;;;;;;4975674;28;20096;-78
2021/10/31 05:20:17;;;;;;;83.97;36.65;;;9.30;99.90;;;;;;4976115;28;20049;-77
2021/10/31 05:22:42;;;;;;;90.65;39.10;;;9.30;99.90;;;;;;4974983;28;20047;-78
2021/10/31 05:25:09;;;;;;;78.95;38.75;;;9.40;99.90;;;;;;4959701;28;20037;-79
2021/10/31 05:27:37;;;;;;;91.70;40.42;;;9.40;99.90;;;;;;4975600;28;20042;-77
2021/10/31 05:30:04;;;;;;;91.13;40.75;;;9.50;99.90;;;;;;4975654;28;20145;-78
2021/10/31 05:32:35;;;;;;;88.78;40.88;;;9.50;99.90;;;;;;4991502;28;20069;-79
2021/10/31 05:35:00;;;;;;;104.15;42.55;;;9.60;99.90;;;;;;4991822;28;20034;-78
2021/10/31 05:37:33;;;;;;;111.43;45.13;;;9.60;99.90;;;;;;4975737;28;20386;-78
2021/10/31 05:40:00;;;;;;;93.00;42.72;;;9.60;99.90;;;;;;4974970;28;20052;-79
2021/10/31 05:42:25;;;;;;;102.43;43.15;;;9.60;99.90;;;;;;4975263;28;20078;-77
2021/10/31 05:44:51;;;;;;;98.50;43.42;;;9.70;99.90;;;;;;4975301;28;20070;-78
2021/10/31 05:47:16;;;;;;;102.75;42.20;;;9.70;99.90;;;;;;4975330;28;20077;-80
2021/10/31 05:49:42;;;;;;;110.30;44.88;;;9.70;99.90;;;;;;4975258;28;20035;-77
2021/10/31 05:52:08;;;;;;;85.68;40.83;;;9.70;99.90;;;;;;4975422;28;20042;-78
2021/10/31 05:54:34;;;;;;;88.15;41.47;;;9.70;99.90;;;;;;4974218;28;20043;-78
2021/10/31 05:57:00;;;;;;;89.50;41.65;;;9.80;99.90;;;;;;4975140;28;20046;-79
2021/10/31 05:59:25;;;;;;;86.05;37.47;;;9.80;99.90;;;;;;4974922;28;20050;-78
2021/10/31 06:01:51;;;;;;;92.78;40.60;;;9.80;99.90;;;;;;4974716;28;20069;-78
2021/10/31 06:04:17;;;;;;;84.20;40.95;;;9.80;99.90;;;;;;4973985;28;20046;-78
2021/10/31 06:06:46;;;;;;;85.88;40.30;;;9.80;99.90;;;;;;4974903;28;20085;-78
2021/10/31 06:09:12;;;;;;;95.82;40.47;;;9.80;99.90;;;;;;4957824;28;20089;-78
2021/10/31 06:11:38;;;;;;;79.90;39.42;;;9.80;99.90;;;;;;4975046;28;20434;-80
2021/10/31 06:14:03;;;;;;;91.07;39.90;;;9.80;99.90;;;;;;4974615;28;20042;-78
2021/10/31 06:16:29;;;;;;;86.43;39.17;;;9.90;99.90;;;;;;4992382;28;20046;-77
2021/10/31 06:18:55;;;;;;;71.20;34.03;;;9.80;99.90;;;;;;4974681;28;20042;-78
2021/10/31 06:21:20;;;;;;;78.30;38.30;;;9.90;99.90;;;;;;4974828;28;20117;-80
2021/10/31 06:23:46;;;;;;;77.82;34.95;;;9.90;99.90;;;;;;4973796;28;20096;-79
2021/10/31 06:26:12;;;;;;;68.88;35.85;;;9.90;99.90;;;;;;4958500;28;20042;-78
2021/10/31 06:28:37;;;;;;;70.38;34.55;;;9.90;99.90;;;;;;4974290;28;20084;-78
2021/10/31 06:31:03;;;;;;;66.22;35.25;;;9.90;99.90;;;;;;4974695;28;20097;-77
2021/10/31 06:33:29;;;;;;;72.60;34.40;;;9.80;99.90;;;;;;4973999;28;20096;-78
2021/10/31 06:35:55;;;;;;;66.25;34.30;;;9.90;99.90;;;;;;4974693;28;20038;-77
2021/10/31 06:38:21;;;;;;;62.45;33.10;;;9.90;99.90;;;;;;4989680;28;20122;-78
2021/10/31 06:40:47;;;;;;;64.95;31.52;;;9.90;99.90;;;;;;4974569;28;20509;-79
2021/10/31 06:43:13;;;;;;;62.35;31.48;;;9.90;99.90;;;;;;4974237;28;20042;-80
2021/10/31 06:45:39;;;;;;;54.95;30.52;;;10.00;99.90;;;;;;4974443;28;20390;-78
2021/10/31 06:48:06;;;;;;;58.90;30.85;;;9.90;99.90;;;;;;4991769;28;20038;-78
2021/10/31 06:50:32;;;;;;;63.17;31.27;;;9.90;99.90;;;;;;4974565;28;20038;-79
2021/10/31 06:52:58;;;;;;;53.88;30.15;;;9.90;99.90;;;;;;4973514;28;20050;-77
2021/10/31 06:55:23;;;;;;;57.25;30.00;;;10.00;99.90;;;;;;4974518;28;20100;-80
2021/10/31 06:57:49;;;;;;;70.85;32.10;;;10.00;99.90;;;;;;4974427;28;20042;-80
2021/10/31 07:00:15;;;;;;;61.92;30.33;;;10.00;99.90;;;;;;4973995;28;20547;-79
2021/10/31 07:02:41;;;;;;;65.15;31.05;;;10.00;99.90;;;;;;4974204;28;20048;-78
2021/10/31 07:05:07;;;;;;;59.08;30.27;;;10.00;99.90;;;;;;4974092;28;20140;-79
2021/10/31 07:07:33;;;;;;;57.30;31.02;;;10.00;99.90;;;;;;4974116;28;20082;-78
2021/10/31 07:09:59;;;;;;;54.80;28.75;;;10.00;99.90;;;;;;4974129;28;20046;-80
2021/10/31 07:12:25;;;;;;;57.47;29.80;;;10.00;99.90;;;;;;4974340;28;20560;-80
2021/10/31 07:14:50;;;;;;;54.58;29.80;;;10.10;99.90;;;;;;4958353;28;20056;-79
2021/10/31 07:17:16;;;;;;;53.58;28.00;;;10.10;99.90;;;;;;4978283;28;20139;-80
2021/10/31 07:19:42;;;;;;;56.33;29.00;;;10.10;99.90;;;;;;4978136;28;20077;-79
2021/10/31 07:22:08;;;;;;;50.13;27.73;;;10.10;99.90;;;;;;4978176;28;20051;-78
2021/10/31 07:24:34;;;;;;;45.85;27.13;;;10.10;99.90;;;;;;4977454;28;20410;-80
2021/10/31 07:26:59;;;;;;;52.40;27.20;;;10.10;99.90;;;;;;4978001;28;20037;-78
2021/10/31 07:29:25;;;;;;;48.92;28.30;;;10.20;99.90;;;;;;4978213;28;20117;-78
2021/10/31 07:31:51;;;;;;;45.92;27.80;;;10.20;99.90;;;;;;4994019;28;20117;-79
2021/10/31 07:34:18;;;;;;;56.40;27.92;;;10.20;99.90;;;;;;4995204;28;20081;-79
2021/10/31 07:36:44;;;;;;;52.53;26.33;;;10.30;99.90;;;;;;4977680;28;20081;-78
2021/10/31 07:39:10;;;;;;;44.75;26.55;;;10.20;99.90;;;;;;4977001;28;20046;-78
2021/10/31 07:41:37;;;;;;;49.10;26.20;;;10.30;99.90;;;;;;4977835;28;20109;-79
2021/10/31 07:44:03;;;;;;;49.55;26.52;;;10.30;99.90;;;;;;4977782;28;20039;-79
2021/10/31 07:46:29;;;;;;;51.92;25.88;;;10.40;99.90;;;;;;4977579;28;20042;-79
2021/10/31 07:48:54;;;;;;;46.17;24.92;;;10.40;99.90;;;;;;4977399;28;20050;-80
2021/10/31 07:51:20;;;;;;;43.50;25.55;;;10.40;99.90;;;;;;4961466;28;20429;-80
2021/10/31 07:53:46;;;;;;;46.58;25.80;;;10.50;99.90;;;;;;4976729;28;20045;-79
2021/10/31 07:56:15;;;;;;;46.63;25.40;;;10.40;99.90;;;;;;4977554;28;20042;-79
2021/10/31 07:58:46;;;;;;;40.33;23.33;;;10.50;99.90;;;;;;4994902;28;20434;-79
2021/10/31 08:01:12;;;;;;;38.95;23.25;;;10.50;99.90;;;;;;4977405;28;20046;-80
2021/10/31 08:03:39;;;;;;;43.47;22.45;;;10.50;99.90;;;;;;4976782;28;20088;-80
2021/10/31 08:06:05;;;;;;;36.00;23.02;;;10.50;99.90;;;;;;4977396;28;20050;-78
2021/10/31 08:08:31;;;;;;;41.83;22.52;;;10.50;99.90;;;;;;4960179;28;20042;-80
2021/10/31 08:10:57;;;;;;;42.47;22.33;;;10.60;99.90;;;;;;4961073;28;20051;-78
2021/10/31 08:13:24;;;;;;;37.90;22.48;;;10.70;99.90;;;;;;4977286;28;20046;-79
2021/10/31 08:15:51;;;;;;;34.47;22.45;;;10.60;99.90;;;;;;4977106;28;20052;-79
2021/10/31 08:18:18;;;;;;;37.90;23.25;;;10.70;99.90;;;;;;4994337;28;20466;-80
2021/10/31 08:20:44;;;;;;;43.78;23.25;;;10.70;99.90;;;;;;4977051;28;20121;-80
2021/10/31 08:23:10;;;;;;;39.40;22.35;;;10.70;99.90;;;;;;4975884;28;20141;-78
2021/10/31 08:25:36;;;;;;;39.33;21.73;;;10.80;99.90;;;;;;4976865;28;20126;-79
2021/10/31 08:28:05;;;;;;;32.90;20.42;;;10.80;99.90;;;;;;4993580;28;20202;-80
2021/10/31 08:30:32;;;;;;;36.65;21.02;;;10.80;99.90;;;;;;4960696;28;20050;-79
2021/10/31 08:33:05;;;;;;;32.75;21.17;;;10.80;99.90;;;;;;4960349;28;20077;-78
2021/10/31 08:35:31;;;;;;;36.15;20.13;;;10.80;99.90;;;;;;4977040;28;20050;-80
2021/10/31 08:37:57;;;;;;;34.33;21.48;;;10.90;99.90;;;;;;4975667;28;20650;-78
2021/10/31 08:40:23;;;;;;;37.63;22.15;;;10.90;99.90;;;;;;4976827;28;20125;-78
2021/10/31 08:42:49;;;;;;;33.47;21.85;;;10.90;99.90;;;;;;4976370;28;20042;-78
2021/10/31 08:45:14;;;;;;;32.10;20.60;;;10.90;99.90;;;;;;4976210;28;20046;-78
2021/10/31 08:47:40;;;;;;;33.70;20.00;;;11.00;99.90;;;;;;4992674;28;20034;-80
2021/10/31 08:50:07;;;;;;;27.73;18.73;;;11.10;99.90;;;;;;4976788;28;20050;-80
2021/10/31 08:52:34;;;;;;;28.92;19.80;;;11.10;99.90;;;;;;4976273;28;20038;-79
2021/10/31 08:54:59;;;;;;;36.17;20.15;;;11.20;99.90;;;;;;4975671;28;20046;-80
2021/10/31 08:57:25;;;;;;;33.28;20.83;;;11.20;99.90;;;;;;4992558;28;20053;-80
2021/10/31 08:59:51;;;;;;;34.22;20.10;;;11.30;99.90;;;;;;4992556;28;20060;-78
2021/10/31 09:02:16;;;;;;;32.53;18.58;;;11.40;99.90;;;;;;4992451;28;20058;-80
2021/10/31 09:04:42;;;;;;;26.38;18.58;;;11.40;99.90;;;;;;4945497;28;20056;-79
2021/10/31 09:07:14;;;;;;;32.50;17.05;;;11.50;99.90;;;;;;4976164;28;20501;-79
2021/10/31 09:09:39;;;;;;;27.73;17.33;;;11.60;99.90;;;;;;4975437;28;20172;-79
2021/10/31 09:12:06;;;;;;;25.33;16.10;;;11.70;99.90;;;;;;4993782;28;20469;-79
2021/10/31 09:14:32;;;;;;;22.98;15.85;;;11.70;99.90;;;;;;4975761;28;20501;-79
2021/10/31 09:16:58;;;;;;;25.33;14.50;;;11.70;99.90;;;;;;4959877;28;20042;-80
2021/10/31 09:19:24;;;;;;;23.58;15.68;;;11.70;99.90;;;;;;4975999;28;20072;-80
2021/10/31 09:21:49;;;;;;;21.85;15.50;;;11.70;99.90;;;;;;4975978;28;20489;-79
2021/10/31 09:24:15;;;;;;;21.85;15.38;;;11.80;99.90;;;;;;4974846;28;20035;-80
2021/10/31 09:26:41;;;;;;;26.45;16.55;;;11.70;99.90;;;;;;4975870;28;20038;-78
2021/10/31 09:29:07;;;;;;;28.20;16.13;;;11.80;99.90;;;;;;4976224;28;20444;-80
2021/10/31 09:31:33;;;;;;;21.70;15.63;;;11.80;99.90;;;;;;4975689;28;20481;-80
2021/10/31 09:33:59;;;;;;;29.02;15.48;;;11.90;99.90;;;;;;4975429;28;20072;-80
2021/10/31 09:36:25;;;;;;;24.17;15.82;;;11.90;99.90;;;;;;4975027;28;20050;-78
2021/10/31 09:38:53;;;;;;;20.45;16.02;;;12.10;99.90;;;;;;4974491;28;20121;-79
2021/10/31 09:41:19;;;;;;;22.35;15.25;;;12.10;99.90;;;;;;4975108;28;20054;-81
2021/10/31 09:43:50;;;;;;;21.48;14.80;;;12.20;99.90;;;;;;4975534;28;20046;-79
2021/10/31 09:46:17;;;;;;;20.77;15.63;;;12.20;99.90;;;;;;4975331;28;20044;-81
2021/10/31 09:48:43;;;;;;;20.90;13.98;;;12.30;99.90;;;;;;4975186;28;20038;-79
2021/10/31 09:51:09;;;;;;;16.88;12.98;;;12.40;99.90;;;;;;4975266;28;20064;-80
2021/10/31 09:53:35;;;;;;;20.05;14.15;;;12.50;99.90;;;;;;4974377;28;20080;-79
2021/10/31 09:56:01;;;;;;;20.23;13.38;;;12.60;99.90;;;;;;4975240;28;20092;-81
2021/10/31 09:58:36;;;;;;;19.58;12.98;;;12.60;99.90;;;;;;4992606;28;20042;-78
2021/10/31 10:01:09;;;;;;;16.95;12.18;;;12.60;99.90;;;;;;4991657;28;20042;-80
2021/10/31 10:03:35;;;;;;;20.63;13.05;;;12.70;99.90;;;;;;4974873;28;20046;-80
2021/10/31 10:06:19;;;;;;;17.50;12.43;;;12.70;99.90;;;;;;4975055;28;20057;-78
2021/10/31 10:08:59;;;;;;;18.13;11.73;;;12.70;99.90;;;;;;4974484;28;20464;-78
2021/10/31 10:11:26;;;;;;;17.25;11.02;;;12.80;99.90;;;;;;4975048;28;20038;-78
2021/10/31 10:13:53;;;;;;;14.48;10.18;;;12.90;99.90;;;;;;4974921;28;20474;-81
2021/10/31 10:16:21;;;;;;;14.75;9.95;;;13.00;99.90;;;;;;4963388;28;20175;-80
2021/10/31 10:18:48;;;;;;;12.95;9.63;;;13.00;99.90;;;;;;4974903;28;20049;-79
2021/10/31 10:21:14;;;;;;;14.88;9.30;;;13.10;99.90;;;;;;4974873;28;20046;-78
2021/10/31 10:23:57;;;;;;;15.50;8.60;;;13.10;99.90;;;;;;4973860;28;20073;-78
2021/10/31 10:26:26;;;;;;;15.38;9.20;;;13.20;99.90;;;;;;4974856;28;20046;-80
2021/10/31 10:28:58;;;;;;;12.82;8.30;;;13.40;99.90;;;;;;5007079;28;20038;-80
2021/10/31 10:31:25;;;;;;;11.30;7.32;;;13.40;99.90;;;;;;4958892;28;20038;-78
2021/10/31 10:33:51;;;;;;;12.48;7.30;;;13.40;99.90;;;;;;4974452;28;20074;-81
2021/10/31 10:36:17;;;;;;;8.70;7.05;;;13.50;99.90;;;;;;4991025;28;20043;-80
2021/10/31 10:39:07;;;;;;;13.68;7.78;;;13.70;99.90;;;;;;4973855;28;20408;-80
2021/10/31 10:41:40;;;;;;;12.35;6.90;;;13.60;99.90;;;;;;4958437;28;20089;-81
2021/10/31 10:44:16;;;;;;;10.40;6.43;;;13.60;99.90;;;;;;4974673;28;20047;-80
2021/10/31 10:46:42;;;;;;;15.18;6.50;;;13.70;99.90;;;;;;4965041;28;20108;-79
2021/10/31 10:49:09;;;;;;;9.05;5.78;;;13.70;99.90;;;;;;4974963;28;20510;-78
2021/10/31 10:51:35;;;;;;;10.00;6.22;;;13.90;99.90;;;;;;4979680;28;20133;-80
2021/10/31 10:54:15;;;;;;;9.30;5.68;;;13.80;99.90;;;;;;4979931;28;20153;-79
2021/10/31 10:57:05;;;;;;;13.82;5.68;;;13.90;99.90;;;;;;4981486;28;20096;-80
2021/10/31 10:59:31;;;;;;;9.45;5.50;;;13.90;99.90;;;;;;4980576;28;20216;-79
2021/10/31 11:02:25;;;;;;;9.45;5.30;;;13.80;99.90;;;;;;4980818;28;20042;-81
2021/10/31 11:04:53;;;;;;;9.05;5.20;;;14.00;99.90;;;;;;4960866;28;20153;-79
2021/10/31 11:07:47;;;;;;;12.05;5.80;;;14.00;99.90;;;;;;4964464;28;20104;-78
2021/10/31 11:10:23;;;;;;;9.95;5.00;;;14.00;99.90;;;;;;4998312;28;20117;-78
2021/10/31 11:12:52;;;;;;;7.53;4.90;;;14.00;99.90;;;;;;4980373;28;20050;-79
2021/10/31 11:15:23;;;;;;;10.77;4.90;;;14.00;99.90;;;;;;4980853;28;20057;-80
2021/10/31 11:17:53;;;;;;;7.55;5.18;;;14.10;99.90;;;;;;4996877;28;20052;-80
2021/10/31 11:20:23;;;;;;;7.07;5.13;;;14.20;99.90;;;;;;4964758;28;20046;-77
2021/10/31 11:22:56;;;;;;;8.15;4.65;;;14.30;99.90;;;;;;4979746;28;20531;-78
2021/10/31 11:25:23;;;;;;;9.43;4.40;;;14.40;99.90;;;;;;4996919;28;20439;-80
2021/10/31 11:27:51;;;;;;;8.48;4.40;;;14.50;99.90;;;;;;4997047;28;20042;-80
2021/10/31 11:30:19;;;;;;;6.55;4.63;;;14.50;99.90;;;;;;4964889;28;20446;-77
2021/10/31 11:32:46;;;;;;;8.18;4.88;;;14.60;99.90;;;;;;4980194;28;20386;-78
2021/10/31 11:35:16;;;;;;;10.38;4.88;;;14.60;99.90;;;;;;4996944;28;20050;-79
2021/10/31 11:38:08;;;;;;;10.80;4.95;;;14.70;99.90;;;;;;4979992;28;20481;-78
2021/10/31 11:40:45;;;;;;;7.57;4.75;;;14.80;99.90;;;;;;4980360;28;20069;-80
2021/10/31 11:43:20;;;;;;;6.00;4.43;;;14.80;99.90;;;;;;4980189;28;20039;-79
2021/10/31 11:45:48;;;;;;;6.60;4.80;;;15.00;99.90;;;;;;4997911;28;20038;-77
2021/10/31 11:48:23;;;;;;;11.68;4.90;;;15.10;99.90;;;;;;4981195;28;20088;-78
2021/10/31 11:51:02;;;;;;;10.27;5.20;;;15.10;99.90;;;;;;4980781;28;20081;-80
2021/10/31 11:53:30;;;;;;;8.98;4.80;;;15.10;99.90;;;;;;4979814;28;20042;-79
2021/10/31 11:56:01;;;;;;;6.25;4.40;;;15.10;99.90;;;;;;4980984;28;20498;-78
2021/10/31 11:58:40;;;;;;;8.10;4.70;;;15.10;99.90;;;;;;4980457;28;20049;-80
2021/10/31 12:01:21;;;;;;;11.35;5.25;;;15.00;99.90;;;;;;4979779;28;20371;-83
2021/10/31 12:03:50;;;;;;;8.85;4.90;;;14.80;99.90;;;;;;4990034;28;20897;-78
2021/10/31 12:06:16;;;;;;;10.50;5.10;;;14.80;99.90;;;;;;4958251;28;20073;-78
2021/10/31 12:08:59;;;;;;;11.05;5.45;;;14.70;99.90;;;;;;4941010;28;20399;-79
2021/10/31 12:11:37;;;;;;;8.73;5.05;;;14.60;99.90;;;;;;4957998;28;20046;-79
2021/10/31 12:14:08;;;;;;;11.43;5.05;;;14.60;99.90;;;;;;4957690;28;20035;-80
2021/10/31 12:16:57;;;;;;;8.25;5.05;;;14.50;99.90;;;;;;4957600;28;20119;-80
2021/10/31 12:19:24;;;;;;;10.82;5.13;;;14.40;99.90;;;;;;4973219;28;20058;-78
2021/10/31 12:22:06;;;;;;;7.80;5.00;;;14.40;99.90;;;;;;4957501;28;20042;-78
2021/10/31 12:24:36;;;;;;;8.18;5.30;;;14.30;99.90;;;;;;4956773;28;20437;-81
2021/10/31 12:27:20;;;;;;;8.57;4.80;;;14.30;99.90;;;;;;4973232;28;20076;-79
2021/10/31 12:30:28;;;;;;;10.73;5.30;;;14.30;99.90;;;;;;4973345;28;20042;-80
2021/10/31 12:33:02;;;;;;;7.18;5.13;;;14.30;99.90;;;;;;4989205;28;20290;-79
2021/10/31 12:35:35;;;;;;;11.23;5.20;;;14.20;99.90;;;;;;4957305;28;20051;-80
2021/10/31 12:38:16;;;;;;;6.55;4.45;;;14.10;99.90;;;;;;4956551;28;20903;-80
2021/10/31 12:40:46;;;;;;;7.90;4.68;;;14.10;99.90;;;;;;4941353;28;20050;-79
2021/10/31 12:43:44;;;;;;;6.53;4.50;;;14.10;99.90;;;;;;4989177;28;20455;-79